Time;durP1;ratioP1;P1;durP2;ratioP2;P2;SDS_P1;SDS_P2;PMS_P1;PMS_P2;Temp;Humidity;BMP_temperature;BMP_pressure;BME280_temperature;BME280_humidity;BME280_pressure;Samples;Min_cycle;Max_cycle;Signal;HPM_P1;HPM_P2
2021/04/06 00:00:59;;;;;;;2.87;1.10;;;;;;;-0.76;83.00;95867.09;5060183;28;20501;-85
2021/04/06 00:03:27;;;;;;;3.40;1.07;;;;;;;-0.81;83.31;95863.22;5060158;28;20440;-85
2021/04/06 00:05:58;;;;;;;4.07;1.23;;;;;;;-0.87;84.04;95867.03;5060261;28;20503;-85
2021/04/06 00:08:25;;;;;;;8.93;1.40;;;;;;;-0.89;84.84;95864.88;5060090;28;20462;-85
2021/04/06 00:10:54;;;;;;;4.93;1.33;;;;;;;-0.90;85.44;95862.69;5060016;28;20511;-86
2021/04/06 00:13:24;;;;;;;3.13;0.83;;;;;;;-0.87;84.84;95865.13;5060014;28;20450;-86
2021/04/06 00:15:51;;;;;;;5.53;1.50;;;;;;;-0.81;84.78;95867.78;5044453;28;20466;-86
2021/04/06 00:18:18;;;;;;;2.50;1.17;;;;;;;-0.89;84.87;95856.22;5052758;28;20495;-86
2021/04/06 00:20:46;;;;;;;5.57;1.23;;;;;;;-0.96;85.85;95865.31;5053985;28;20464;-86
2021/04/06 00:23:16;;;;;;;2.93;0.90;;;;;;;-1.00;86.34;95856.19;5052677;28;20435;-86
2021/04/06 00:25:46;;;;;;;2.77;1.40;;;;;;;-0.97;85.90;95857.88;5039449;28;20495;-87
2021/04/06 00:28:16;;;;;;;5.93;1.50;;;;;;;-0.98;86.07;95861.72;5040186;28;20420;-86
2021/04/06 00:30:43;;;;;;;3.00;1.00;;;;;;;-1.01;86.70;95860.00;5039209;28;20574;-87
2021/04/06 00:33:13;;;;;;;4.90;1.37;;;;;;;-1.01;86.61;95854.72;5039953;28;20448;-87
2021/04/06 00:35:40;;;;;;;3.50;1.60;;;;;;;-0.96;86.65;95859.31;5040622;28;20499;-86
2021/04/06 00:38:08;;;;;;;7.60;1.27;;;;;;;-0.99;86.26;95862.91;5039785;28;20482;-86
2021/04/06 00:40:41;;;;;;;1.60;0.97;;;;;;;-1.02;85.84;95853.25;5039186;28;20457;-87
2021/04/06 00:43:08;;;;;;;2.77;1.40;;;;;;;-1.05;86.11;95851.56;5039227;28;20534;-87
2021/04/06 00:45:37;;;;;;;5.67;1.60;;;;;;;-1.08;86.66;95858.53;5039847;28;20435;-87
2021/04/06 00:48:10;;;;;;;4.20;1.50;;;;;;;-1.04;86.87;95859.03;5039426;28;20448;-86
2021/04/06 00:50:37;;;;;;;2.57;1.20;;;;;;;-1.07;87.20;95868.63;5039214;28;20469;-86
2021/04/06 00:53:04;;;;;;;2.50;1.67;;;;;;;-1.03;86.52;95857.13;5039432;28;20464;-87
2021/04/06 00:55:36;;;;;;;5.90;1.93;;;;;;;-0.98;86.64;95857.16;5039553;28;20510;-87
2021/04/06 00:58:11;;;;;;;8.60;2.23;;;;;;;-1.02;86.94;95859.28;5039313;28;21024;-87
2021/04/06 01:00:38;;;;;;;3.60;1.60;;;;;;;-1.10;87.25;95858.31;5039002;28;20441;-84
2021/04/06 01:03:07;;;;;;;6.30;1.83;;;;;;;-1.05;87.47;95859.50;5039960;28;20463;-87
2021/04/06 01:05:35;;;;;;;5.47;2.43;;;;;;;-1.03;87.39;95855.19;5039427;28;20522;-87
2021/04/06 01:08:04;;;;;;;2.77;2.40;;;;;;;-1.09;87.65;95859.72;5038413;28;20829;-86
2021/04/06 01:10:32;;;;;;;3.87;2.10;;;;;;;-1.07;87.71;95857.34;5039306;28;20427;-87
2021/04/06 01:13:00;;;;;;;7.43;2.30;;;;;;;-0.99;86.89;95854.97;5039000;28;20911;-87
2021/04/06 01:15:28;;;;;;;2.53;2.30;;;;;;;-1.04;87.07;95855.66;5039024;28;20479;-87
2021/04/06 01:17:54;;;;;;;7.43;2.23;;;;;;;-1.11;87.56;95859.50;5039312;28;20453;-87
2021/04/06 01:20:22;;;;;;;4.03;1.87;;;;;;;-1.06;87.39;95858.78;5039532;28;20510;-86
2021/04/06 01:22:53;;;;;;;8.63;2.50;;;;;;;-1.13;87.73;95853.97;5039058;28;20464;-86
2021/04/06 01:25:21;;;;;;;3.90;2.60;;;;;;;-1.06;87.50;95858.78;5038801;28;20423;-86
2021/04/06 01:27:47;;;;;;;5.23;2.27;;;;;;;-1.17;88.01;95856.81;5038391;28;20447;-86
2021/04/06 01:30:16;;;;;;;5.27;2.17;;;;;;;-1.09;88.27;95844.56;5038317;28;20446;-86
2021/04/06 01:32:43;;;;;;;5.37;2.53;;;;;;;-1.17;87.82;95842.88;5038145;28;20458;-87
2021/04/06 01:35:10;;;;;;;11.83;2.57;;;;;;;-1.22;87.73;95848.84;5038335;28;20455;-86
2021/04/06 01:37:36;;;;;;;9.80;2.17;;;;;;;-1.18;88.15;95847.44;5038966;28;20442;-86
2021/04/06 01:40:05;;;;;;;5.23;2.47;;;;;;;-1.17;88.14;95851.53;5038625;28;20928;-85
2021/04/06 01:42:36;;;;;;;12.50;2.80;;;;;;;-1.16;88.10;95833.72;5038929;28;20491;-87
2021/04/06 01:45:07;;;;;;;7.83;2.40;;;;;;;-1.25;88.26;95842.56;5039184;28;20432;-87
2021/04/06 01:47:33;;;;;;;3.20;2.07;;;;;;;-1.31;88.67;95843.75;5038848;28;20489;-87
2021/04/06 01:50:00;;;;;;;4.00;2.63;;;;;;;-1.37;88.84;95837.69;5038710;28;20469;-88
2021/04/06 01:52:27;;;;;;;10.47;2.07;;;;;;;-1.39;89.21;95835.53;5038482;28;20476;-86
2021/04/06 01:54:55;;;;;;;5.60;2.00;;;;;;;-1.45;88.97;95826.84;5038792;28;20493;-88
2021/04/06 01:57:28;;;;;;;4.10;2.50;;;;;;;-1.41;89.21;95824.00;5039004;28;20451;-88
2021/04/06 01:59:57;;;;;;;2.90;1.83;;;;;;;-1.42;89.30;95833.13;5039609;28;20435;-88
2021/04/06 02:02:25;;;;;;;4.43;3.30;;;;;;;-1.42;88.60;95833.13;5041410;28;20860;-88
2021/04/06 02:04:55;;;;;;;6.20;2.43;;;;;;;-1.44;88.98;95819.66;5042873;28;20443;-88
2021/04/06 02:07:26;;;;;;;9.10;2.63;;;;;;;-1.36;88.29;95812.72;5042149;28;20491;-88
2021/04/06 02:09:52;;;;;;;4.93;2.60;;;;;;;-1.38;88.22;95812.47;5042633;28;20434;-88
2021/04/06 02:12:20;;;;;;;7.83;2.20;;;;;;;-1.46;88.48;95808.81;5042160;28;20551;-87
2021/04/06 02:14:46;;;;;;;5.60;2.10;;;;;;;-1.46;88.61;95820.13;5042700;28;20438;-87
2021/04/06 02:17:13;;;;;;;4.70;2.50;;;;;;;-1.51;88.76;95815.53;5042264;28;20431;-87
2021/04/06 02:19:41;;;;;;;3.23;2.80;;;;;;;-1.46;88.07;95817.47;5041720;28;20941;-87
2021/04/06 02:22:10;;;;;;;14.17;2.40;;;;;;;-1.50;88.19;95816.97;5041836;28;20486;-87
2021/04/06 02:24:38;;;;;;;5.07;2.57;;;;;;;-1.51;88.06;95818.16;5041871;28;20505;-86
2021/04/06 02:27:07;;;;;;;4.70;2.20;;;;;;;-1.63;88.71;95819.31;5042279;28;20447;-86
2021/04/06 02:29:44;;;;;;;5.33;1.83;;;;;;;-1.62;88.74;95812.81;5041185;28;20483;-86
2021/04/06 02:32:14;;;;;;;3.70;1.80;;;;;;;-1.49;87.94;95820.34;5041761;28;20466;-86
2021/04/06 02:34:42;;;;;;;8.87;3.17;;;;;;;-1.43;86.99;95816.53;5042053;28;20439;-86
2021/04/06 02:37:13;;;;;;;5.17;2.30;;;;;;;-1.53;86.99;95811.88;5041738;28;20508;-86
2021/04/06 02:39:40;;;;;;;5.57;2.17;;;;;;;-1.54;87.35;95808.53;5041733;28;20499;-86
2021/04/06 02:42:25;;;;;;;3.33;2.10;;;;;;;-1.47;87.19;95794.16;5041289;28;20490;-86
2021/04/06 02:44:55;;;;;;;6.27;3.00;;;;;;;-1.48;86.80;95808.56;5041674;28;20423;-86
2021/04/06 02:47:23;;;;;;;20.80;3.90;;;;;;;-1.49;87.16;95802.53;5042170;28;20431;-87
2021/04/06 02:49:50;;;;;;;2.37;2.17;;;;;;;-1.51;87.56;95807.59;5042095;28;20454;-86
2021/04/06 02:52:16;;;;;;;7.50;3.93;;;;;;;-1.55;87.53;95809.00;5041268;28;20451;-86
2021/04/06 02:54:43;;;;;;;6.03;2.47;;;;;;;-1.61;86.74;95806.34;5041949;28;20566;-86
2021/04/06 02:57:22;;;;;;;5.53;2.87;;;;;;;-1.65;87.26;95806.56;5042253;28;20533;-86
2021/04/06 02:59:49;;;;;;;3.70;2.10;;;;;;;-1.66;87.48;95809.69;5042113;28;20522;-86
2021/04/06 03:02:15;;;;;;;7.33;2.90;;;;;;;-1.62;87.20;95795.03;5042334;28;20496;-87
2021/04/06 03:04:43;;;;;;;4.70;2.93;;;;;;;-1.51;86.91;95791.00;5042009;28;20436;-87
2021/04/06 03:07:18;;;;;;;7.60;2.37;;;;;;;-1.56;87.50;95808.28;5042429;28;20519;-87
2021/04/06 03:09:53;;;;;;;6.00;2.80;;;;;;;-1.49;87.42;95796.53;5042586;28;20473;-86
2021/04/06 03:12:19;;;;;;;2.70;2.10;;;;;;;-1.43;87.59;95800.66;5041770;28;20455;-86
2021/04/06 03:14:47;;;;;;;6.90;2.47;;;;;;;-1.38;86.97;95801.88;5042599;28;20431;-87
2021/04/06 03:17:14;;;;;;;3.53;2.57;;;;;;;-1.28;86.67;95790.59;5050521;28;20499;-86
2021/04/06 03:19:40;;;;;;;5.77;2.50;;;;;;;-1.28;86.29;95790.59;5058508;28;20441;-86
2021/04/06 03:22:07;;;;;;;5.17;2.20;;;;;;;-1.32;85.99;95790.13;5059886;28;20511;-86
2021/04/06 03:24:34;;;;;;;8.40;3.10;;;;;;;-1.32;85.67;95782.19;5059162;28;20831;-84
2021/04/06 03:27:01;;;;;;;4.40;2.23;;;;;;;-1.26;85.38;95787.50;5058472;28;20420;-86
2021/04/06 03:29:28;;;;;;;7.60;2.57;;;;;;;-1.20;85.86;95786.31;5050031;28;20434;-86
2021/04/06 03:31:55;;;;;;;5.80;2.20;;;;;;;-1.14;84.95;95792.38;5040698;28;20617;-86
2021/04/06 03:34:21;;;;;;;8.23;2.80;;;;;;;-1.11;84.10;95788.75;5041449;28;20445;-86
2021/04/06 03:36:47;;;;;;;4.80;2.47;;;;;;;-1.19;85.00;95781.75;5041239;28;20462;-85
2021/04/06 03:39:14;;;;;;;4.30;2.70;;;;;;;-1.06;85.38;95787.31;5041311;28;20590;-85
2021/04/06 03:41:41;;;;;;;2.90;2.40;;;;;;;-0.96;85.32;95787.84;5041092;28;20577;-86
2021/04/06 03:44:08;;;;;;;6.40;3.37;;;;;;;-0.92;84.73;95783.03;5041506;28;20440;-86
2021/04/06 03:46:37;;;;;;;4.33;2.43;;;;;;;-0.91;83.60;95779.94;5041276;28;20818;-87
2021/04/06 03:49:13;;;;;;;7.20;2.67;;;;;;;-0.90;83.95;95783.28;5040985;28;20428;-87
2021/04/06 03:51:48;;;;;;;4.47;2.90;;;;;;;-0.95;84.23;95784.00;5040978;28;20553;-86
2021/04/06 03:54:37;;;;;;;4.07;1.90;;;;;;;-0.81;84.37;95783.06;5040961;28;20427;-87
2021/04/06 03:57:22;;;;;;;5.57;2.50;;;;;;;-0.74;83.19;95788.63;5040377;28;20424;-88
2021/04/06 03:59:49;;;;;;;9.60;2.80;;;;;;;-0.80;83.60;95792.44;5039962;28;20460;-87
2021/04/06 04:02:15;;;;;;;3.80;2.53;;;;;;;-0.74;83.35;95788.63;5041252;28;20582;-88
2021/04/06 04:04:41;;;;;;;8.97;3.73;;;;;;;-0.77;83.37;95791.50;5041885;28;20515;-87
2021/04/06 04:07:08;;;;;;;6.03;2.87;;;;;;;-0.83;84.20;95791.47;5041944;28;20451;-87
2021/04/06 04:09:35;;;;;;;10.80;2.70;;;;;;;-0.74;84.28;95793.91;5042163;28;20497;-87
2021/04/06 04:12:01;;;;;;;6.73;2.97;;;;;;;-0.71;83.76;95797.53;5041091;28;20456;-87
2021/04/06 04:14:27;;;;;;;3.63;2.80;;;;;;;-0.67;83.65;95795.38;5041399;28;20451;-88
2021/04/06 04:16:53;;;;;;;7.30;2.97;;;;;;;-0.62;83.63;95802.59;5040162;28;20520;-86
2021/04/06 04:19:20;;;;;;;8.77;3.20;;;;;;;-0.76;83.89;95798.97;5041136;28;20461;-86
2021/04/06 04:21:46;;;;;;;5.63;3.60;;;;;;;-0.75;83.56;95797.06;5040467;28;20486;-86
2021/04/06 04:24:12;;;;;;;5.40;2.60;;;;;;;-0.81;84.09;95804.97;5040338;28;20440;-86
2021/04/06 04:26:39;;;;;;;10.53;3.53;;;;;;;-0.77;84.43;95808.09;5041219;28;20436;-87
2021/04/06 04:29:05;;;;;;;9.57;3.77;;;;;;;-0.71;83.61;95803.53;5041330;28;20505;-87
2021/04/06 04:31:31;;;;;;;7.53;2.67;;;;;;;-0.70;83.40;95799.69;5040745;28;20458;-87
2021/04/06 04:33:58;;;;;;;7.23;3.27;;;;;;;-0.78;83.43;95797.97;5041212;28;20542;-86
2021/04/06 04:36:24;;;;;;;10.40;3.67;;;;;;;-0.60;82.49;95795.63;5041831;28;20480;-86
2021/04/06 04:38:50;;;;;;;18.47;2.97;;;;;;;-0.67;82.25;95790.78;5041134;28;20439;-87
2021/04/06 04:41:16;;;;;;;14.60;4.40;;;;;;;-0.66;83.16;95794.88;5041150;28;20568;-87
2021/04/06 04:43:43;;;;;;;7.10;3.00;;;;;;;-0.64;83.29;95797.78;5041824;28;20863;-87
2021/04/06 04:46:09;;;;;;;7.67;3.10;;;;;;;-0.69;83.04;95795.84;5040803;28;20510;-87
2021/04/06 04:48:35;;;;;;;4.80;3.03;;;;;;;-0.66;83.48;95794.88;5041256;28;20515;-87
2021/04/06 04:51:01;;;;;;;9.33;3.20;;;;;;;-0.61;83.21;95796.09;5041752;28;20467;-87
2021/04/06 04:53:28;;;;;;;9.50;3.10;;;;;;;-0.61;83.39;95780.22;5041993;28;20439;-86
2021/04/06 04:55:54;;;;;;;8.03;2.73;;;;;;;-0.58;83.74;95787.19;5040972;28;21035;-86
2021/04/06 04:58:21;;;;;;;5.20;3.70;;;;;;;-0.59;83.53;95780.44;5041354;28;20463;-87
2021/04/06 05:00:48;;;;;;;7.40;3.60;;;;;;;-0.61;83.50;95783.59;5041252;28;20439;-88
2021/04/06 05:03:14;;;;;;;3.97;3.10;;;;;;;-0.60;83.83;95781.66;5041021;28;20511;-86
2021/04/06 05:05:40;;;;;;;8.80;2.93;;;;;;;-0.57;83.76;95778.06;5040458;28;20948;-87
2021/04/06 05:08:06;;;;;;;5.20;3.40;;;;;;;-0.49;83.25;95783.59;5040703;28;20455;-87
2021/04/06 05:10:33;;;;;;;27.73;12.60;;;;;;;-0.57;83.55;95784.06;5042258;28;20503;-87
2021/04/06 05:12:59;;;;;;;8.37;3.40;;;;;;;-0.55;83.80;95786.97;5041926;28;20502;-87
2021/04/06 05:15:29;;;;;;;5.30;2.70;;;;;;;-0.46;83.64;95782.63;5040920;28;21012;-88
2021/04/06 05:17:56;;;;;;;6.03;3.03;;;;;;;-0.50;84.08;95784.81;5041952;28;20447;-87
2021/04/06 05:20:23;;;;;;;7.60;2.80;;;;;;;-0.48;83.18;95788.41;5044400;28;20428;-86
2021/04/06 05:22:49;;;;;;;17.23;2.47;;;;;;;-0.46;83.83;95787.91;5047961;28;20606;-88
2021/04/06 05:25:15;;;;;;;9.87;2.83;;;;;;;-0.22;84.23;95793.50;5044501;28;20511;-88
2021/04/06 05:27:42;;;;;;;8.93;3.20;;;;;;;-0.04;83.24;95800.94;5042140;28;20543;-87
2021/04/06 05:30:09;;;;;;;7.73;2.70;;;;;;;0.05;82.42;95805.28;5040837;28;20435;-88
2021/04/06 05:32:35;;;;;;;5.30;3.20;;;;;;;0.21;81.05;95793.94;5041574;28;20551;-86
2021/04/06 05:35:03;;;;;;;13.73;3.50;;;;;;;0.24;81.15;95793.69;5041698;28;20470;-87
2021/04/06 05:37:29;;;;;;;6.67;2.80;;;;;;;0.26;81.25;95793.19;5043471;28;20439;-88
2021/04/06 05:39:55;;;;;;;5.60;3.03;;;;;;;0.39;80.94;95796.06;5041153;28;21050;-87
2021/04/06 05:42:22;;;;;;;11.93;4.33;;;;;;;0.33;80.65;95790.06;5041877;28;20526;-87
2021/04/06 05:44:49;;;;;;;8.43;3.30;;;;;;;0.19;80.96;95794.41;5041552;28;20538;-88
2021/04/06 05:47:19;;;;;;;9.07;2.90;;;;;;;-0.03;81.05;95787.19;5045879;28;20534;-86
2021/04/06 05:49:46;;;;;;;12.63;3.37;;;;;;;0.01;81.28;95786.97;5058150;28;20431;-87
2021/04/06 05:52:14;;;;;;;8.87;2.70;;;;;;;0.05;81.90;95790.09;5057980;28;20459;-87
2021/04/06 05:54:40;;;;;;;12.30;3.70;;;;;;;0.08;81.63;95786.47;5058232;28;20526;-87
2021/04/06 05:57:07;;;;;;;9.00;5.50;;;;;;;0.26;81.25;95780.66;5050332;28;20507;-88
2021/04/06 05:59:33;;;;;;;6.17;2.80;;;;;;;0.15;81.90;95786.00;5040281;28;20500;-87
2021/04/06 06:01:59;;;;;;;6.37;4.00;;;;;;;0.18;82.05;95784.28;5041787;28;20487;-89
2021/04/06 06:04:26;;;;;;;7.43;3.00;;;;;;;0.18;81.58;95786.94;5041573;28;20463;-88
2021/04/06 06:06:53;;;;;;;10.90;3.77;;;;;;;0.17;82.23;95777.53;5041308;28;20432;-88
2021/04/06 06:09:29;;;;;;;13.47;3.87;;;;;;;0.18;81.88;95784.28;5041572;28;20443;-87
2021/04/06 06:11:57;;;;;;;7.87;3.03;;;;;;;0.14;81.89;95789.13;5040887;28;20491;-88
2021/04/06 06:14:31;;;;;;;9.23;3.67;;;;;;;0.02;82.25;95783.13;5042332;28;20552;-88
2021/04/06 06:16:57;;;;;;;4.80;3.10;;;;;;;0.11;82.58;95796.13;5040653;28;20502;-87
2021/04/06 06:19:32;;;;;;;7.87;2.70;;;;;;;0.18;82.41;95792.25;5040422;28;20834;-87
2021/04/06 06:22:09;;;;;;;8.33;3.43;;;;;;;0.19;82.36;95791.75;5041424;28;20490;-88
2021/04/06 06:24:38;;;;;;;4.33;3.17;;;;;;;0.25;82.63;95797.06;5040755;28;20466;-87
2021/04/06 06:27:22;;;;;;;9.20;3.27;;;;;;;0.31;81.85;95803.81;5040359;28;20447;-87
2021/04/06 06:29:49;;;;;;;9.50;3.63;;;;;;;0.38;82.02;95794.63;5041376;28;20435;-87
2021/04/06 06:32:19;;;;;;;8.90;3.73;;;;;;;0.52;81.92;95799.66;5040817;28;20463;-87
2021/04/06 06:34:45;;;;;;;12.37;3.43;;;;;;;0.66;81.34;95795.25;5041393;28;20459;-87
2021/04/06 06:37:15;;;;;;;7.30;3.17;;;;;;;0.73;80.94;95794.75;5041114;28;20439;-87
2021/04/06 06:39:49;;;;;;;10.40;3.20;;;;;;;0.71;80.96;95793.81;5040925;28;20466;-86
2021/04/06 06:42:17;;;;;;;14.83;5.03;;;;;;;0.62;81.25;95799.41;5041396;28;20533;-86
2021/04/06 06:44:44;;;;;;;6.33;3.40;;;;;;;0.53;81.25;95800.38;5043425;28;20458;-87
2021/04/06 06:47:14;;;;;;;9.13;3.40;;;;;;;0.70;80.95;95803.69;5044103;28;20471;-87
2021/04/06 06:49:42;;;;;;;12.37;3.57;;;;;;;0.81;80.93;95801.03;5045552;28;20431;-87
2021/04/06 06:52:28;;;;;;;9.90;5.23;;;;;;;0.97;81.63;95804.81;5044432;28;20463;-87
2021/04/06 06:54:58;;;;;;;6.00;3.10;;;;;;;1.11;81.01;95811.03;5045831;28;20435;-89
2021/04/06 06:57:33;;;;;;;7.57;3.70;;;;;;;1.08;80.74;95810.06;5044665;28;20466;-86
2021/04/06 07:00:08;;;;;;;7.53;3.70;;;;;;;1.23;80.36;95805.16;5043746;28;20802;-87
2021/04/06 07:02:34;;;;;;;9.97;3.10;;;;;;;1.32;79.51;95804.16;5044860;28;20568;-87
2021/04/06 07:05:13;;;;;;;10.50;3.73;;;;;;;1.35;79.62;95801.22;5045375;28;20467;-87
2021/04/06 07:07:54;;;;;;;8.83;3.00;;;;;;;1.37;79.06;95782.88;5046115;28;20427;-87
2021/04/06 07:10:22;;;;;;;7.90;3.00;;;;;;;1.35;78.60;95795.91;5045517;28;20477;-87
2021/04/06 07:12:53;;;;;;;8.13;3.77;;;;;;;1.37;79.14;95795.44;5053444;28;20450;-88
2021/04/06 07:15:19;;;;;;;10.10;3.90;;;;;;;1.56;78.63;95793.63;5060476;28;20412;-88
2021/04/06 07:17:48;;;;;;;14.87;3.73;;;;;;;1.60;78.78;95800.09;5060517;28;20466;-88
2021/04/06 07:20:21;;;;;;;11.70;3.00;;;;;;;1.70;77.61;95803.19;5054891;28;20542;-86
2021/04/06 07:22:48;;;;;;;8.50;3.03;;;;;;;1.66;77.29;95802.03;5045557;28;20855;-88
2021/04/06 07:25:15;;;;;;;14.90;2.50;;;;;;;1.85;77.97;95797.53;5051011;28;20498;-86
2021/04/06 07:27:43;;;;;;;9.90;3.57;;;;;;;2.00;76.24;95800.56;5059658;28;20458;-88
2021/04/06 07:30:11;;;;;;;4.17;2.93;;;;;;;2.20;76.54;95802.78;5042682;28;20531;-88
2021/04/06 07:32:39;;;;;;;8.13;2.93;;;;;;;2.39;74.82;95798.25;5041558;28;20469;-88
2021/04/06 07:35:07;;;;;;;9.87;3.47;;;;;;;2.38;74.49;95796.81;5043081;28;20478;-88
2021/04/06 07:37:38;;;;;;;6.83;2.83;;;;;;;2.60;74.54;95809.88;5044165;28;20529;-88
2021/04/06 07:40:08;;;;;;;9.07;3.03;;;;;;;3.35;73.51;95809.28;5045122;28;20431;-88
2021/04/06 07:42:36;;;;;;;4.47;2.57;;;;;;;4.08;71.54;95806.97;5044215;28;21011;-88
2021/04/06 07:45:05;;;;;;;6.10;2.63;;;;;;;4.78;70.05;95808.19;5043887;28;20443;-89
2021/04/06 07:47:39;;;;;;;9.37;2.60;;;;;;;4.98;66.96;95814.88;5044656;28;20478;-87
2021/04/06 07:50:12;;;;;;;5.87;2.70;;;;;;;4.67;66.89;95805.72;5044161;28;20447;-88
2021/04/06 07:52:38;;;;;;;7.93;2.70;;;;;;;4.36;66.68;95804.56;5045864;28;20478;-88
2021/04/06 07:55:05;;;;;;;6.83;2.43;;;;;;;4.05;68.68;95808.00;5043928;28;20451;-89
2021/04/06 07:57:43;;;;;;;12.07;2.80;;;;;;;3.94;69.34;95798.22;5043233;28;20529;-89
2021/04/06 08:00:11;;;;;;;8.50;2.43;;;;;;;3.74;68.72;95807.50;5043452;28;20491;-88
2021/04/06 08:02:44;;;;;;;7.70;4.20;;;;;;;3.85;68.82;95811.22;5043337;28;20677;-88
2021/04/06 08:05:18;;;;;;;8.03;3.37;;;;;;;3.75;70.11;95802.88;5043441;28;20971;-88
2021/04/06 08:07:44;;;;;;;2.90;2.30;;;;;;;3.79;69.89;95804.00;5044448;28;20493;-89
2021/04/06 08:10:47;;;;;;;13.60;3.30;;;;;;;3.77;69.87;95801.16;5047773;28;20488;-88
2021/04/06 08:13:16;;;;;;;9.97;3.50;;;;;;;3.60;70.86;95807.97;5045199;28;20576;-88
2021/04/06 08:15:43;;;;;;;9.60;3.77;;;;;;;3.63;70.66;95806.94;5043768;28;20447;-87
2021/04/06 08:18:09;;;;;;;4.73;2.70;;;;;;;3.70;70.52;95811.66;5044257;28;20458;-88
2021/04/06 08:20:39;;;;;;;10.30;3.10;;;;;;;3.91;70.12;95807.25;5044669;28;20974;-87
2021/04/06 08:23:08;;;;;;;9.53;3.47;;;;;;;3.85;70.41;95806.63;5043511;28;20824;-88
2021/04/06 08:25:59;;;;;;;10.57;3.30;;;;;;;3.72;70.73;95801.97;5043657;28;20439;-88
2021/04/06 08:28:39;;;;;;;8.17;3.27;;;;;;;3.75;70.96;95808.22;5044422;28;20836;-88
2021/04/06 08:31:39;;;;;;;10.73;3.47;;;;;;;3.73;69.74;95816.00;5044637;28;20546;-87
2021/04/06 08:34:30;;;;;;;7.80;3.03;;;;;;;3.68;69.64;95808.81;5046585;28;20491;-87
2021/04/06 08:37:11;;;;;;;7.87;2.77;;;;;;;3.75;69.00;95810.88;5048444;28;20514;-87
2021/04/06 08:39:38;;;;;;;10.93;3.80;;;;;;;3.71;69.00;95813.84;5058605;28;20454;-88
2021/04/06 08:42:06;;;;;;;14.43;2.93;;;;;;;3.53;69.31;95809.25;5057597;28;20486;-87
2021/04/06 08:44:33;;;;;;;9.50;2.40;;;;;;;3.41;69.62;95813.31;5051423;28;20456;-87
2021/04/06 08:47:00;;;;;;;10.37;2.80;;;;;;;3.56;69.99;95810.19;5050808;28;20498;-87
2021/04/06 08:49:28;;;;;;;13.30;3.53;;;;;;;3.58;69.58;95810.41;5051011;28;20463;-86
2021/04/06 08:51:55;;;;;;;9.50;3.60;;;;;;;3.49;69.89;95813.44;5047689;28;20499;-86
2021/04/06 08:54:23;;;;;;;10.90;3.57;;;;;;;3.47;70.38;95813.94;5050142;28;20452;-87
2021/04/06 08:56:52;;;;;;;10.97;2.80;;;;;;;3.46;71.09;95822.44;5057966;28;20435;-88
2021/04/06 08:59:21;;;;;;;4.37;2.20;;;;;;;3.24;72.83;95820.78;5054988;28;20450;-88
2021/04/06 09:01:53;;;;;;;7.70;2.83;;;;;;;3.16;74.46;95820.63;5055739;28;20483;-87
2021/04/06 09:04:21;;;;;;;11.87;3.17;;;;;;;2.95;74.82;95817.00;5049947;28;20931;-88
2021/04/06 09:06:48;;;;;;;7.73;3.10;;;;;;;2.77;77.27;95820.38;5043428;28;20443;-88
2021/04/06 09:09:18;;;;;;;9.90;3.20;;;;;;;2.91;76.80;95827.25;5042302;28;20576;-89
2021/04/06 09:11:45;;;;;;;7.40;3.27;;;;;;;2.90;76.51;95817.09;5042474;28;20866;-87
2021/04/06 09:14:12;;;;;;;8.23;3.13;;;;;;;3.11;76.13;95826.03;5043712;28;20499;-88
2021/04/06 09:16:38;;;;;;;8.30;2.60;;;;;;;3.13;74.98;95824.31;5042807;28;20934;-87
2021/04/06 09:19:09;;;;;;;5.20;2.60;;;;;;;3.08;74.68;95827.75;5041763;28;20454;-88
2021/04/06 09:21:37;;;;;;;4.53;2.60;;;;;;;3.07;75.39;95820.28;5041474;28;20539;-87
2021/04/06 09:24:06;;;;;;;9.33;3.13;;;;;;;3.22;73.96;95823.97;5041004;28;20454;-87
2021/04/06 09:26:32;;;;;;;5.57;2.20;;;;;;;3.44;72.18;95816.91;5042084;28;20536;-87
2021/04/06 09:29:01;;;;;;;10.57;3.67;;;;;;;3.74;72.74;95818.16;5041162;28;20444;-87
2021/04/06 09:31:28;;;;;;;2.90;1.57;;;;;;;3.79;72.22;95819.28;5040777;28;20505;-87
2021/04/06 09:34:09;;;;;;;5.10;2.43;;;;;;;3.83;71.43;95827.00;5042257;28;20439;-86
2021/04/06 09:36:38;;;;;;;5.30;2.03;;;;;;;3.63;68.84;95817.63;5041515;28;20459;-87
2021/04/06 09:39:06;;;;;;;5.90;2.17;;;;;;;3.69;70.18;95823.59;5041508;28;20535;-87
2021/04/06 09:41:35;;;;;;;5.23;1.90;;;;;;;3.72;69.84;95825.25;5040532;28;20503;-88
2021/04/06 09:44:01;;;;;;;7.20;2.23;;;;;;;3.82;70.08;95814.91;5040227;28;20443;-87
2021/04/06 09:46:36;;;;;;;3.60;2.40;;;;;;;3.75;69.95;95818.88;5042734;28;20527;-88
2021/04/06 09:49:04;;;;;;;9.10;2.47;;;;;;;3.69;71.01;95815.59;5042935;28;20454;-90
2021/04/06 09:51:31;;;;;;;5.23;2.60;;;;;;;3.63;70.65;95823.66;5040648;28;20612;-88
2021/04/06 09:53:59;;;;;;;15.60;3.43;;;;;;;3.75;70.33;95819.63;5041260;28;20504;-88
2021/04/06 09:56:25;;;;;;;9.37;2.53;;;;;;;3.76;70.06;95814.97;5041725;28;20515;-89
2021/04/06 09:58:53;;;;;;;6.63;2.97;;;;;;;3.85;71.14;95819.97;5041814;28;20473;-87
2021/04/06 10:01:21;;;;;;;11.07;3.90;;;;;;;3.94;69.91;95816.19;5038874;28;20471;-88
2021/04/06 10:03:49;;;;;;;6.43;2.63;;;;;;;4.18;68.69;95816.75;5041057;28;20431;-87
2021/04/06 10:06:15;;;;;;;12.77;2.60;;;;;;;4.25;66.73;95816.16;5041430;28;20483;-87
2021/04/06 10:08:42;;;;;;;5.97;2.33;;;;;;;4.13;67.02;95819.53;5040475;28;20451;-87
2021/04/06 10:11:10;;;;;;;5.73;1.73;;;;;;;3.88;68.09;95815.56;5039759;28;20546;-89
2021/04/06 10:13:38;;;;;;;5.17;1.50;;;;;;;3.82;67.70;95812.25;5040960;28;20471;-87
2021/04/06 10:16:10;;;;;;;13.20;2.37;;;;;;;3.81;67.98;95805.47;5044193;28;20454;-87
2021/04/06 10:18:41;;;;;;;11.00;2.60;;;;;;;3.90;67.92;95807.75;5041411;28;20520;-88
2021/04/06 10:21:31;;;;;;;7.23;2.43;;;;;;;3.85;67.67;95801.28;5040470;28;20463;-88
2021/04/06 10:24:01;;;;;;;8.50;2.63;;;;;;;3.78;67.12;95802.59;5025200;28;20479;-88
2021/04/06 10:26:29;;;;;;;4.83;2.03;;;;;;;3.81;66.06;95800.13;5046515;28;20474;-88
2021/04/06 10:29:07;;;;;;;6.30;2.27;;;;;;;3.88;65.97;95800.25;5046058;28;20439;-88
2021/04/06 10:31:48;;;;;;;8.17;2.20;;;;;;;3.82;66.69;95785.56;5044399;28;20473;-88
2021/04/06 10:34:14;;;;;;;7.83;3.77;;;;;;;3.90;65.45;95797.06;5043331;28;20486;-88
2021/04/06 10:36:54;;;;;;;5.17;1.93;;;;;;;3.97;65.39;95791.16;5045803;28;20545;-88
2021/04/06 10:39:31;;;;;;;5.40;1.53;;;;;;;4.18;64.50;95790.06;5045774;28;20496;-88
2021/04/06 10:41:58;;;;;;;6.73;2.67;;;;;;;4.20;65.08;95784.19;5045957;28;20614;-88
2021/04/06 10:44:24;;;;;;;4.07;1.90;;;;;;;4.53;64.94;95783.63;5045253;28;20457;-87
2021/04/06 10:46:50;;;;;;;8.47;2.20;;;;;;;4.64;63.49;95777.34;5048512;28;20490;-88
2021/04/06 10:49:17;;;;;;;8.40;2.67;;;;;;;4.70;62.27;95784.03;5044912;28;20494;-88
2021/04/06 10:51:48;;;;;;;6.03;3.20;;;;;;;5.01;62.20;95784.44;5044027;28;21054;-88
2021/04/06 10:54:16;;;;;;;3.47;2.00;;;;;;;4.90;63.33;95776.63;5043648;28;20449;-88
2021/04/06 10:56:44;;;;;;;5.40;2.10;;;;;;;4.65;63.46;95768.81;5046093;28;20450;-88
2021/04/06 10:59:13;;;;;;;10.67;2.47;;;;;;;4.90;63.40;95774.66;5044213;28;20463;-88
2021/04/06 11:01:42;;;;;;;6.73;2.50;;;;;;;5.23;62.79;95776.66;5044878;28;20454;-88
2021/04/06 11:04:11;;;;;;;5.00;1.87;;;;;;;4.99;60.22;95763.53;5047526;28;20478;-88
2021/04/06 11:06:39;;;;;;;4.47;1.80;;;;;;;4.80;61.05;95770.97;5047281;28;20439;-88
2021/04/06 11:09:12;;;;;;;7.07;1.57;;;;;;;4.80;60.99;95768.28;5045272;28;20439;-89
2021/04/06 11:11:39;;;;;;;9.93;3.40;;;;;;;4.43;61.20;95755.88;5044917;28;20490;-87
2021/04/06 11:14:08;;;;;;;8.33;1.73;;;;;;;4.37;61.74;95757.94;5044792;28;20477;-88
2021/04/06 11:16:37;;;;;;;5.77;2.33;;;;;;;4.38;62.71;95762.06;5048045;28;20566;-87
2021/04/06 11:19:07;;;;;;;7.23;2.30;;;;;;;4.32;62.55;95756.78;5047373;28;20477;-87
2021/04/06 11:21:34;;;;;;;3.73;2.00;;;;;;;4.41;62.04;95755.69;5047961;28;20487;-87
2021/04/06 11:24:01;;;;;;;7.10;2.83;;;;;;;4.67;61.26;95744.97;5046850;28;20809;-88
2021/04/06 11:26:28;;;;;;;11.20;2.90;;;;;;;4.56;60.25;95747.16;5045495;28;20519;-88
2021/04/06 11:28:54;;;;;;;6.00;2.60;;;;;;;4.72;61.30;95743.44;5045528;28;20453;-90
2021/04/06 11:31:20;;;;;;;8.50;1.90;;;;;;;4.84;61.70;95740.03;5044638;28;20467;-88
2021/04/06 11:33:47;;;;;;;3.33;2.10;;;;;;;4.90;61.55;95741.88;5044944;28;20466;-88
2021/04/06 11:36:14;;;;;;;6.47;2.30;;;;;;;4.77;59.54;95753.28;5046534;28;20788;-88
2021/04/06 11:38:40;;;;;;;9.47;2.53;;;;;;;4.53;60.60;95746.22;5045290;28;20465;-88
2021/04/06 11:41:06;;;;;;;6.90;2.20;;;;;;;4.27;59.89;95730.94;5044658;28;20493;-89
2021/04/06 11:43:33;;;;;;;4.27;1.77;;;;;;;4.28;60.03;95735.03;5044982;28;20591;-89
2021/04/06 11:45:59;;;;;;;6.50;1.90;;;;;;;4.00;60.12;95734.09;5045033;28;20828;-88